Time;durP1;ratioP1;P1;durP2;ratioP2;P2;SDS_P1;SDS_P2;PMS_P1;PMS_P2;Temp;Humidity;BMP_temperature;BMP_pressure;BME280_temperature;BME280_humidity;BME280_pressure;Samples;Min_cycle;Max_cycle;Signal;HPM_P1;HPM_P2
2023/03/28 00:00:37;;;;;;;9.98;3.42;;;;;;;;;;5066452;28;20039;-70
2023/03/28 00:03:02;;;;;;;6.35;3.03;;;;;;;;;;5066344;28;20040;-70
2023/03/28 00:05:28;;;;;;;9.77;3.45;;;;;;;;;;5056649;28;20057;-70
2023/03/28 00:07:55;;;;;;;14.77;3.78;;;;;;;;;;5051242;28;20036;-70
2023/03/28 00:10:21;;;;;;;7.65;3.13;;;;;;;;;;5066781;28;20032;-70
2023/03/28 00:12:46;;;;;;;10.90;3.60;;;;;;;;;;5071064;28;20099;-70
2023/03/28 00:15:11;;;;;;;14.77;4.10;;;;;;;;;;5069523;28;20052;-70
2023/03/28 00:17:40;;;;;;;9.70;3.28;;;;;;;;;;5065562;28;20086;-70
2023/03/28 00:20:09;;;;;;;11.00;3.80;;;;;;;;;;5065213;28;20102;-70
2023/03/28 00:22:36;;;;;;;6.50;3.15;;;;;;;;;;5065859;28;20115;-70
2023/03/28 00:25:04;;;;;;;6.45;3.85;;;;;;;;;;5066443;28;20031;-70
2023/03/28 00:27:29;;;;;;;7.47;3.30;;;;;;;;;;5064794;28;20041;-70
2023/03/28 00:29:55;;;;;;;5.28;2.70;;;;;;;;;;5066342;28;20040;-70
2023/03/28 00:32:20;;;;;;;8.32;3.10;;;;;;;;;;5063621;28;20044;-70
2023/03/28 00:34:45;;;;;;;6.20;3.72;;;;;;;;;;5065673;28;20032;-70
2023/03/28 00:37:16;;;;;;;9.27;3.20;;;;;;;;;;5066004;28;20016;-70
2023/03/28 00:39:42;;;;;;;8.27;2.90;;;;;;;;;;5064791;28;20040;-70
2023/03/28 00:42:12;;;;;;;9.10;2.83;;;;;;;;;;5065555;28;20511;-70
2023/03/28 00:44:52;;;;;;;8.50;3.58;;;;;;;;;;5064062;28;20037;-70
2023/03/28 00:47:26;;;;;;;6.72;3.15;;;;;;;;;;5055011;28;20428;-70
2023/03/28 00:50:12;;;;;;;4.60;2.97;;;;;;;;;;5045269;28;20029;-70
2023/03/28 00:53:05;;;;;;;9.23;3.13;;;;;;;;;;5048527;28;20055;-70
2023/03/28 00:55:36;;;;;;;5.50;3.10;;;;;;;;;;5064039;28;20016;-70
2023/03/28 00:58:06;;;;;;;4.72;2.85;;;;;;;;;;5064837;28;20059;-70
2023/03/28 01:00:33;;;;;;;6.00;2.58;;;;;;;;;;5064059;28;20024;-70
2023/03/28 01:03:01;;;;;;;5.40;3.22;;;;;;;;;;5046838;28;20031;-70
2023/03/28 01:05:31;;;;;;;12.77;2.80;;;;;;;;;;5054350;28;20064;-70
2023/03/28 01:08:14;;;;;;;6.88;3.13;;;;;;;;;;5065160;28;20024;-70
2023/03/28 01:10:40;;;;;;;7.78;2.95;;;;;;;;;;5063079;28;20495;-70
2023/03/28 01:13:07;;;;;;;7.70;2.72;;;;;;;;;;5065675;28;20757;-70
2023/03/28 01:15:32;;;;;;;7.25;2.47;;;;;;;;;;5064976;28;20157;-70
2023/03/28 01:18:09;;;;;;;9.45;2.58;;;;;;;;;;5063481;28;20459;-70
2023/03/28 01:21:05;;;;;;;7.30;3.08;;;;;;;;;;5065112;28;20033;-70
2023/03/28 01:23:49;;;;;;;7.15;3.03;;;;;;;;;;5064072;28;20032;-70
2023/03/28 01:26:40;;;;;;;6.88;3.08;;;;;;;;;;5064786;28;20036;-70
2023/03/28 01:29:05;;;;;;;9.45;3.15;;;;;;;;;;5064648;28;20047;-70
2023/03/28 01:31:43;;;;;;;4.85;2.78;;;;;;;;;;5064930;28;20439;-70
2023/03/28 01:34:41;;;;;;;4.65;2.33;;;;;;;;;;5080608;28;20027;-70
2023/03/28 01:37:17;;;;;;;7.43;3.20;;;;;;;;;;5044759;28;20554;-70
2023/03/28 01:39:51;;;;;;;6.82;3.22;;;;;;;;;;5044831;28;20060;-70
2023/03/28 01:42:25;;;;;;;9.02;3.53;;;;;;;;;;5044742;28;20451;-70
2023/03/28 01:45:01;;;;;;;7.75;3.28;;;;;;;;;;5045017;28;20076;-70
2023/03/28 01:47:54;;;;;;;7.13;2.90;;;;;;;;;;5044514;28;20069;-70
2023/03/28 01:50:31;;;;;;;10.93;2.90;;;;;;;;;;5044715;28;20144;-70
2023/03/28 01:53:05;;;;;;;4.90;2.22;;;;;;;;;;5049946;28;20025;-69
2023/03/28 01:55:47;;;;;;;8.95;3.03;;;;;;;;;;5064771;28;20096;-69
2023/03/28 01:58:20;;;;;;;8.40;3.15;;;;;;;;;;5065116;28;20556;-69
2023/03/28 02:00:55;;;;;;;8.75;3.38;;;;;;;;;;5061647;28;20563;-69
2023/03/28 02:03:27;;;;;;;7.65;3.00;;;;;;;;;;5066532;28;20705;-69
2023/03/28 02:05:55;;;;;;;4.18;3.13;;;;;;;;;;5068731;28;20119;-70
2023/03/28 02:08:24;;;;;;;5.05;3.17;;;;;;;;;;5068812;28;20067;-70
2023/03/28 02:10:52;;;;;;;7.40;3.00;;;;;;;;;;5065522;28;20024;-70
2023/03/28 02:13:22;;;;;;;10.80;4.35;;;;;;;;;;5069055;28;20546;-70
2023/03/28 02:15:51;;;;;;;6.72;3.60;;;;;;;;;;5067663;28;20043;-70
2023/03/28 02:18:22;;;;;;;10.00;3.20;;;;;;;;;;5068535;28;20121;-70
2023/03/28 02:20:53;;;;;;;8.20;3.55;;;;;;;;;;5068485;28;20033;-70
2023/03/28 02:23:41;;;;;;;6.10;3.33;;;;;;;;;;5064050;28;20040;-70
2023/03/28 02:26:07;;;;;;;6.90;3.33;;;;;;;;;;5068114;28;20442;-70
2023/03/28 02:28:35;;;;;;;7.82;3.40;;;;;;;;;;5061599;28;20029;-70
2023/03/28 02:31:02;;;;;;;6.20;3.42;;;;;;;;;;5068177;28;20151;-70
2023/03/28 02:33:42;;;;;;;8.10;3.30;;;;;;;;;;5066812;28;20029;-69
2023/03/28 02:36:29;;;;;;;6.28;2.97;;;;;;;;;;5067702;28;20135;-70
2023/03/28 02:39:00;;;;;;;6.43;2.97;;;;;;;;;;5066830;28;20051;-70
2023/03/28 02:41:44;;;;;;;7.57;3.45;;;;;;;;;;5066856;28;20511;-70
2023/03/28 02:44:28;;;;;;;;;;;;;;;;;;5067836;28;20036;-69
2023/03/28 02:47:15;;;;;;;;;;;;;;;;;;5067638;28;19916;-70
2023/03/28 02:49:52;;;;;;;6.97;2.92;;;;;;;;;;5066545;28;20291;-70
2023/03/28 02:52:39;;;;;;;7.65;3.60;;;;;;;;;;5067347;28;20032;-70
2023/03/28 02:55:29;;;;;;;7.15;3.15;;;;;;;;;;5068350;28;20032;-70
2023/03/28 02:58:00;;;;;;;7.65;3.53;;;;;;;;;;5067238;28;20057;-70
2023/03/28 03:00:26;;;;;;;7.88;3.58;;;;;;;;;;5066531;28;20094;-70
2023/03/28 03:02:51;;;;;;;11.77;3.58;;;;;;;;;;5065115;28;20033;-70
2023/03/28 03:05:21;;;;;;;7.80;4.13;;;;;;;;;;5062454;28;20032;-70
2023/03/28 03:07:48;;;;;;;7.25;3.13;;;;;;;;;;5066027;28;20078;-70
2023/03/28 03:10:15;;;;;;;6.97;3.15;;;;;;;;;;5066512;28;20028;-70
2023/03/28 03:12:42;;;;;;;6.63;3.63;;;;;;;;;;5065511;28;20068;-70
2023/03/28 03:15:09;;;;;;;6.88;3.65;;;;;;;;;;5065433;28;20040;-70
2023/03/28 03:17:35;;;;;;;8.57;3.20;;;;;;;;;;5066186;28;20037;-70
2023/03/28 03:20:05;;;;;;;12.05;3.50;;;;;;;;;;5064779;28;20123;-70
2023/03/28 03:22:31;;;;;;;8.15;3.63;;;;;;;;;;5063111;28;20055;-70
2023/03/28 03:25:03;;;;;;;9.00;3.85;;;;;;;;;;5066629;28;20024;-70
2023/03/28 03:27:29;;;;;;;6.40;3.90;;;;;;;;;;5066030;28;20453;-70
2023/03/28 03:29:55;;;;;;;10.05;4.22;;;;;;;;;;5064730;28;20048;-70
2023/03/28 03:32:20;;;;;;;9.18;3.75;;;;;;;;;;5062878;28;20024;-70
2023/03/28 03:34:45;;;;;;;9.00;3.78;;;;;;;;;;5063539;28;20036;-70
2023/03/28 03:37:11;;;;;;;9.48;3.40;;;;;;;;;;5064255;28;20521;-70
2023/03/28 03:39:36;;;;;;;7.15;3.28;;;;;;;;;;5066579;28;20048;-70
2023/03/28 03:42:02;;;;;;;8.98;3.30;;;;;;;;;;5064731;28;20043;-70
2023/03/28 03:44:28;;;;;;;11.32;3.28;;;;;;;;;;5065976;28;20041;-70
2023/03/28 03:46:54;;;;;;;6.43;3.67;;;;;;;;;;5066212;28;20102;-70
2023/03/28 03:49:19;;;;;;;13.88;3.45;;;;;;;;;;5065101;28;20424;-71
2023/03/28 03:51:44;;;;;;;9.35;3.20;;;;;;;;;;5062690;28;20029;-70
2023/03/28 03:54:10;;;;;;;8.27;3.15;;;;;;;;;;5064641;28;20043;-70
2023/03/28 03:56:36;;;;;;;8.27;3.53;;;;;;;;;;5065542;28;20033;-70
2023/03/28 03:59:02;;;;;;;6.97;2.95;;;;;;;;;;5026362;28;1079981;-70
2023/03/28 04:01:28;;;;;;;7.50;3.75;;;;;;;;;;5065625;28;20150;-70
2023/03/28 04:03:54;;;;;;;9.18;2.90;;;;;;;;;;5067072;28;20499;-70
2023/03/28 04:06:20;;;;;;;7.65;3.20;;;;;;;;;;5066158;28;20048;-70
2023/03/28 04:08:45;;;;;;;13.70;3.45;;;;;;;;;;5066949;28;20036;-70
2023/03/28 04:11:11;;;;;;;6.10;3.28;;;;;;;;;;5064716;28;20064;-70
2023/03/28 04:13:36;;;;;;;9.70;3.45;;;;;;;;;;5051274;28;20056;-70
2023/03/28 04:16:02;;;;;;;11.50;3.53;;;;;;;;;;5057077;28;20103;-69
2023/03/28 04:18:28;;;;;;;7.53;3.15;;;;;;;;;;5065857;28;20415;-72
2023/03/28 04:20:56;;;;;;;8.73;3.08;;;;;;;;;;5065087;28;20131;-69
2023/03/28 04:23:24;;;;;;;14.32;4.88;;;;;;;;;;5063802;28;20041;-69
2023/03/28 04:25:57;;;;;;;14.10;3.70;;;;;;;;;;5062151;28;20035;-69
2023/03/28 04:28:24;;;;;;;17.45;4.15;;;;;;;;;;5065049;28;20028;-70
2023/03/28 04:30:57;;;;;;;10.38;3.80;;;;;;;;;;5064954;28;20031;-69
2023/03/28 04:33:27;;;;;;;10.88;4.43;;;;;;;;;;5064888;28;20071;-69
2023/03/28 04:36:04;;;;;;;13.00;4.57;;;;;;;;;;5064136;28;20032;-69
2023/03/28 04:38:34;;;;;;;8.55;3.55;;;;;;;;;;5066286;28;20045;-69
2023/03/28 04:41:00;;;;;;;9.40;4.30;;;;;;;;;;5065761;28;20043;-69
2023/03/28 04:43:27;;;;;;;11.90;4.25;;;;;;;;;;5064805;28;20028;-70
2023/03/28 04:45:53;;;;;;;10.10;3.90;;;;;;;;;;5065438;28;20017;-69
2023/03/28 04:48:18;;;;;;;11.32;4.68;;;;;;;;;;5065883;28;20107;-69
2023/03/28 04:50:44;;;;;;;9.35;3.83;;;;;;;;;;5063894;28;20170;-69
2023/03/28 04:53:10;;;;;;;20.98;4.85;;;;;;;;;;5065877;28;20070;-69
2023/03/28 04:55:35;;;;;;;6.90;4.65;;;;;;;;;;5065185;28;20059;-69
2023/03/28 04:58:00;;;;;;;13.68;4.75;;;;;;;;;;5066176;28;20524;-69
2023/03/28 05:00:26;;;;;;;10.27;4.95;;;;;;;;;;5061743;28;20041;-69
2023/03/28 05:02:56;;;;;;;13.32;4.57;;;;;;;;;;5064110;28;20040;-69
2023/03/28 05:05:21;;;;;;;11.85;4.43;;;;;;;;;;5047562;28;20083;-69
2023/03/28 05:07:47;;;;;;;10.00;4.25;;;;;;;;;;5052883;28;20040;-69
2023/03/28 05:10:12;;;;;;;11.23;3.97;;;;;;;;;;5063569;28;20017;-70
2023/03/28 05:12:38;;;;;;;9.05;4.15;;;;;;;;;;5063821;28;20040;-70
2023/03/28 05:15:06;;;;;;;6.40;3.53;;;;;;;;;;5063533;28;20041;-70
2023/03/28 05:17:32;;;;;;;11.52;4.78;;;;;;;;;;5064230;28;20033;-70
2023/03/28 05:19:57;;;;;;;10.15;3.90;;;;;;;;;;5063632;28;20430;-70
2023/03/28 05:22:23;;;;;;;9.48;3.72;;;;;;;;;;5058139;28;20020;-70
2023/03/28 05:24:48;;;;;;;8.50;3.97;;;;;;;;;;5059075;28;20016;-70
2023/03/28 05:27:13;;;;;;;11.30;4.57;;;;;;;;;;5064880;28;20040;-70
2023/03/28 05:29:39;;;;;;;10.55;4.40;;;;;;;;;;5062103;28;20047;-70
2023/03/28 05:32:04;;;;;;;9.18;4.50;;;;;;;;;;5064665;28;20543;-70
2023/03/28 05:34:30;;;;;;;8.18;5.20;;;;;;;;;;5063640;28;20027;-70
2023/03/28 05:36:58;;;;;;;12.63;3.97;;;;;;;;;;5063300;28;20028;-70
2023/03/28 05:39:23;;;;;;;12.02;3.92;;;;;;;;;;5065022;28;20081;-70
2023/03/28 05:41:49;;;;;;;8.05;4.30;;;;;;;;;;5064669;28;20032;-70
2023/03/28 05:44:14;;;;;;;11.70;4.28;;;;;;;;;;5058721;28;20123;-70
2023/03/28 05:46:40;;;;;;;5.90;3.40;;;;;;;;;;5060335;28;20036;-70
2023/03/28 05:49:05;;;;;;;8.95;4.30;;;;;;;;;;5065123;28;20422;-70
2023/03/28 05:51:30;;;;;;;10.23;4.03;;;;;;;;;;5063744;28;20033;-70
2023/03/28 05:53:56;;;;;;;17.30;4.00;;;;;;;;;;5064438;28;20020;-70
2023/03/28 05:56:21;;;;;;;10.30;4.40;;;;;;;;;;5064853;28;20074;-70
2023/03/28 05:58:47;;;;;;;16.13;3.83;;;;;;;;;;5063958;28;20102;-70
2023/03/28 06:01:17;;;;;;;10.77;3.50;;;;;;;;;;5063450;28;20024;-70
2023/03/28 06:03:44;;;;;;;7.05;3.50;;;;;;;;;;5065630;28;20124;-70
2023/03/28 06:06:10;;;;;;;5.68;3.00;;;;;;;;;;5064876;28;20029;-70
2023/03/28 06:08:36;;;;;;;10.10;4.07;;;;;;;;;;5061239;28;20028;-70
2023/03/28 06:11:02;;;;;;;7.18;3.15;;;;;;;;;;5064109;28;20086;-70
2023/03/28 06:13:27;;;;;;;5.93;3.42;;;;;;;;;;5062134;28;20017;-70
2023/03/28 06:15:53;;;;;;;8.02;3.85;;;;;;;;;;5065196;28;20024;-70
2023/03/28 06:18:18;;;;;;;16.95;4.03;;;;;;;;;;5059940;28;20489;-70
2023/03/28 06:20:44;;;;;;;7.43;3.25;;;;;;;;;;5063434;28;20048;-70
2023/03/28 06:23:09;;;;;;;7.13;2.60;;;;;;;;;;5059851;28;20033;-70
2023/03/28 06:25:35;;;;;;;7.20;3.50;;;;;;;;;;5064614;28;20529;-70
2023/03/28 06:28:00;;;;;;;5.28;2.70;;;;;;;;;;5065427;28;20059;-70
2023/03/28 06:30:26;;;;;;;12.48;3.42;;;;;;;;;;5063773;28;20021;-70
2023/03/28 06:32:51;;;;;;;4.13;2.38;;;;;;;;;;5063936;28;20051;-69
2023/03/28 06:35:17;;;;;;;8.07;3.25;;;;;;;;;;5062340;28;20618;-69
2023/03/28 06:37:42;;;;;;;5.88;3.28;;;;;;;;;;5064763;28;20028;-69
2023/03/28 06:40:08;;;;;;;6.50;2.80;;;;;;;;;;5064588;28;20834;-69
2023/03/28 06:42:33;;;;;;;7.80;2.10;;;;;;;;;;5063015;28;20189;-69
2023/03/28 06:44:59;;;;;;;11.95;3.88;;;;;;;;;;5063484;28;20048;-69
2023/03/28 06:47:24;;;;;;;6.47;2.67;;;;;;;;;;5064343;28;20032;-69
2023/03/28 06:49:49;;;;;;;19.33;5.38;;;;;;;;;;5069012;28;20036;-69
2023/03/28 06:52:15;;;;;;;11.18;3.80;;;;;;;;;;5066633;28;20021;-69
2023/03/28 06:54:41;;;;;;;6.32;2.55;;;;;;;;;;5062257;28;20116;-69
2023/03/28 06:57:06;;;;;;;12.23;3.67;;;;;;;;;;5064650;28;20036;-69
2023/03/28 06:59:31;;;;;;;10.43;2.90;;;;;;;;;;5066697;28;20071;-69
2023/03/28 07:01:56;;;;;;;4.68;2.55;;;;;;;;;;5053912;28;20047;-69
2023/03/28 07:04:22;;;;;;;3.50;2.38;;;;;;;;;;5067759;28;20676;-69
2023/03/28 07:06:48;;;;;;;4.32;2.78;;;;;;;;;;5068092;28;20052;-69
2023/03/28 07:09:13;;;;;;;5.80;2.25;;;;;;;;;;5061489;28;20419;-70
2023/03/28 07:11:39;;;;;;;8.75;2.75;;;;;;;;;;5063574;28;20041;-69
2023/03/28 07:14:04;;;;;;;6.28;2.83;;;;;;;;;;5066862;28;20082;-69
2023/03/28 07:16:30;;;;;;;6.68;3.30;;;;;;;;;;5065207;28;20492;-69
2023/03/28 07:18:55;;;;;;;8.85;3.20;;;;;;;;;;5066562;28;20100;-69
2023/03/28 07:21:20;;;;;;;5.35;3.25;;;;;;;;;;5065450;28;20040;-69
2023/03/28 07:23:46;;;;;;;5.32;2.60;;;;;;;;;;5065118;28;20120;-69
2023/03/28 07:26:12;;;;;;;3.05;0.90;;;;;;;;;;5066107;28;20119;-70
2023/03/28 07:28:38;;;;;;;9.15;2.72;;;;;;;;;;5065361;28;20052;-69
2023/03/28 07:31:04;;;;;;;9.93;3.58;;;;;;;;;;5064623;28;20059;-70
2023/03/28 07:33:31;;;;;;;7.45;3.03;;;;;;;;;;5067822;28;20053;-70
2023/03/28 07:35:56;;;;;;;4.43;1.80;;;;;;;;;;5064542;28;20043;-70
2023/03/28 07:38:21;;;;;;;17.88;3.47;;;;;;;;;;5067341;28;20697;-70
2023/03/28 07:40:47;;;;;;;13.55;3.53;;;;;;;;;;5067893;28;20040;-70
2023/03/28 07:43:12;;;;;;;9.23;2.58;;;;;;;;;;5068030;28;20035;-70
2023/03/28 07:45:37;;;;;;;5.53;2.83;;;;;;;;;;5061075;28;20127;-70
2023/03/28 07:48:04;;;;;;;9.10;3.03;;;;;;;;;;5058288;28;20646;-70
2023/03/28 07:50:30;;;;;;;7.22;2.90;;;;;;;;;;5061388;28;20112;-70
2023/03/28 07:52:56;;;;;;;10.07;2.80;;;;;;;;;;5063944;28;20123;-70
2023/03/28 07:55:26;;;;;;;4.63;2.58;;;;;;;;;;5064909;28;20376;-70
2023/03/28 07:57:52;;;;;;;6.88;2.60;;;;;;;;;;5062251;28;20733;-70
2023/03/28 08:00:21;;;;;;;9.50;2.30;;;;;;;;;;5060462;28;20032;-70
2023/03/28 08:02:46;;;;;;;2.92;1.83;;;;;;;;;;5096617;28;20723;-70
2023/03/28 08:05:12;;;;;;;5.38;2.10;;;;;;;;;;5063845;28;20034;-70
2023/03/28 08:07:37;;;;;;;16.40;2.17;;;;;;;;;;5067038;28;20030;-70
2023/03/28 08:10:03;;;;;;;3.25;1.73;;;;;;;;;;5065631;28;20539;-69
2023/03/28 08:12:28;;;;;;;8.85;2.38;;;;;;;;;;5066519;28;20025;-70
2023/03/28 08:14:54;;;;;;;4.15;1.55;;;;;;;;;;5064057;28;20661;-70
2023/03/28 08:17:19;;;;;;;4.43;2.22;;;;;;;;;;5060749;28;20040;-70
2023/03/28 08:19:44;;;;;;;12.90;2.08;;;;;;;;;;5065559;28;20431;-70
2023/03/28 08:22:11;;;;;;;4.07;1.70;;;;;;;;;;5067648;28;20016;-70
2023/03/28 08:24:36;;;;;;;2.42;0.98;;;;;;;;;;5065946;28;20111;-70
2023/03/28 08:27:02;;;;;;;8.70;2.25;;;;;;;;;;5066490;28;20124;-70
2023/03/28 08:29:28;;;;;;;4.90;2.45;;;;;;;;;;5066474;28;20025;-70
2023/03/28 08:31:53;;;;;;;4.65;2.08;;;;;;;;;;5066701;28;20501;-69
2023/03/28 08:34:19;;;;;;;2.40;1.27;;;;;;;;;;5065238;28;20024;-70
2023/03/28 08:36:44;;;;;;;8.05;2.20;;;;;;;;;;5060349;28;20027;-70
2023/03/28 08:39:09;;;;;;;5.90;2.17;;;;;;;;;;5046804;28;20060;-70
2023/03/28 08:42:04;;;;;;;4.03;1.70;;;;;;;;;;5045887;28;20036;-70
2023/03/28 08:44:32;;;;;;;10.80;1.25;;;;;;;;;;5046644;28;20059;-70
2023/03/28 08:47:07;;;;;;;11.23;2.03;;;;;;;;;;5046028;28;20099;-70
2023/03/28 08:49:42;;;;;;;7.55;3.03;;;;;;;;;;5054776;28;20037;-68
2023/03/28 08:52:12;;;;;;;3.83;1.92;;;;;;;;;;5057444;28;20059;-70
2023/03/28 08:54:50;;;;;;;1.85;1.00;;;;;;;;;;5062031;28;20025;-69
2023/03/28 08:57:23;;;;;;;4.07;1.88;;;;;;;;;;5064677;28;20037;-71
2023/03/28 08:59:58;;;;;;;5.60;1.40;;;;;;;;;;5065250;28;20832;-70
2023/03/28 09:02:26;;;;;;;4.95;2.15;;;;;;;;;;5063952;28;20088;-70
2023/03/28 09:04:52;;;;;;;1.75;1.20;;;;;;;;;;5065137;28;20111;-70
2023/03/28 09:07:40;;;;;;;2.83;1.45;;;;;;;;;;5061176;28;20521;-70
2023/03/28 09:10:12;;;;;;;2.38;0.95;;;;;;;;;;5045239;28;20032;-70
2023/03/28 09:12:40;;;;;;;5.22;1.70;;;;;;;;;;5060858;28;20029;-70
2023/03/28 09:15:17;;;;;;;5.50;1.17;;;;;;;;;;5064383;28;20074;-70
2023/03/28 09:17:55;;;;;;;1.83;1.20;;;;;;;;;;5063571;28;20107;-70
2023/03/28 09:20:39;;;;;;;4.03;1.77;;;;;;;;;;5064600;28;20094;-70
2023/03/28 09:23:35;;;;;;;6.55;2.00;;;;;;;;;;5061327;28;20033;-70
2023/03/28 09:26:08;;;;;;;3.63;1.52;;;;;;;;;;5064994;28;20035;-70
2023/03/28 09:28:49;;;;;;;4.95;1.45;;;;;;;;;;5065192;28;20035;-70
2023/03/28 09:31:17;;;;;;;9.50;2.17;;;;;;;;;;5064393;28;20107;-70
2023/03/28 09:33:47;;;;;;;4.95;1.55;;;;;;;;;;5045714;28;20040;-70
2023/03/28 09:36:18;;;;;;;2.60;1.15;;;;;;;;;;5038550;28;20041;-71
2023/03/28 09:38:48;;;;;;;2.92;1.35;;;;;;;;;;5037030;28;20037;-71
2023/03/28 09:41:55;;;;;;;5.88;1.48;;;;;;;;;;5034817;28;20436;-71
2023/03/28 09:44:27;;;;;;;5.18;1.40;;;;;;;;;;4985754;28;20629;-70
2023/03/28 09:46:54;;;;;;;2.30;1.10;;;;;;;;;;5043857;28;20032;-70
2023/03/28 09:49:22;;;;;;;7.20;1.48;;;;;;;;;;5064875;28;20838;-70
2023/03/28 09:51:51;;;;;;;4.78;1.67;;;;;;;;;;5063488;28;20034;-70
2023/03/28 09:54:28;;;;;;;8.15;2.42;;;;;;;;;;5064418;28;20028;-70
2023/03/28 09:56:58;;;;;;;2.53;1.52;;;;;;;;;;5062965;28;20124;-70
2023/03/28 09:59:30;;;;;;;10.23;2.53;;;;;;;;;;5061535;28;20041;-70
2023/03/28 10:01:56;;;;;;;8.95;2.40;;;;;;;;;;5064435;28;20191;-70
2023/03/28 10:04:27;;;;;;;10.93;2.72;;;;;;;;;;5054046;28;20029;-70
2023/03/28 10:06:55;;;;;;;4.20;0.98;;;;;;;;;;5045135;28;20025;-70
2023/03/28 10:09:28;;;;;;;2.30;1.15;;;;;;;;;;5044331;28;20143;-70
2023/03/28 10:11:55;;;;;;;4.68;2.30;;;;;;;;;;5059184;28;20741;-70
2023/03/28 10:14:30;;;;;;;5.90;2.53;;;;;;;;;;5062487;28;20596;-69
2023/03/28 10:16:56;;;;;;;2.65;1.38;;;;;;;;;;5063612;28;20082;-69
2023/03/28 10:19:24;;;;;;;1.90;1.23;;;;;;;;;;5064496;28;20118;-69
2023/03/28 10:21:50;;;;;;;5.57;1.30;;;;;;;;;;5066615;28;20509;-69
2023/03/28 10:24:20;;;;;;;4.82;1.48;;;;;;;;;;5068979;28;20032;-69
2023/03/28 10:26:46;;;;;;;2.38;1.27;;;;;;;;;;5068270;28;20043;-69
2023/03/28 10:29:14;;;;;;;9.55;1.58;;;;;;;;;;5066481;28;20028;-69
2023/03/28 10:31:46;;;;;;;5.82;1.52;;;;;;;;;;5068062;28;20530;-69
2023/03/28 10:34:24;;;;;;;5.03;1.43;;;;;;;;;;5069163;28;20021;-69
2023/03/28 10:36:50;;;;;;;1.40;0.77;;;;;;;;;;5068199;28;20041;-69
2023/03/28 10:39:27;;;;;;;5.75;1.60;;;;;;;;;;5068015;28;20029;-69
2023/03/28 10:41:55;;;;;;;3.80;1.52;;;;;;;;;;5065536;28;20040;-69
2023/03/28 10:44:34;;;;;;;3.90;1.80;;;;;;;;;;5065346;28;20044;-69
2023/03/28 10:47:13;;;;;;;3.15;1.42;;;;;;;;;;5063996;28;20047;-69
2023/03/28 10:49:45;;;;;;;7.13;2.08;;;;;;;;;;5064713;28;20689;-69
2023/03/28 10:52:28;;;;;;;2.22;1.95;;;;;;;;;;5065117;28;20028;-70
2023/03/28 10:55:11;;;;;;;3.50;1.63;;;;;;;;;;5066540;28;20032;-69
2023/03/28 10:57:42;;;;;;;5.22;1.90;;;;;;;;;;5052994;28;20049;-69
2023/03/28 11:00:17;;;;;;;2.60;1.27;;;;;;;;;;5047769;28;20043;-67
2023/03/28 11:02:50;;;;;;;2.95;1.27;;;;;;;;;;5066026;28;20066;-66
2023/03/28 11:05:27;;;;;;;3.17;1.83;;;;;;;;;;5067163;28;20457;-69
2023/03/28 11:08:04;;;;;;;4.07;1.52;;;;;;;;;;5067164;28;20119;-69
2023/03/28 11:10:39;;;;;;;2.72;1.33;;;;;;;;;;5065799;28;20034;-69
2023/03/28 11:13:05;;;;;;;2.85;1.20;;;;;;;;;;5068064;28;20502;-69
2023/03/28 11:15:41;;;;;;;1.63;0.70;;;;;;;;;;5065852;28;20110;-69
2023/03/28 11:18:22;;;;;;;4.72;1.70;;;;;;;;;;5067026;28;20101;-69
2023/03/28 11:21:04;;;;;;;4.57;1.98;;;;;;;;;;5064545;28;20062;-69
2023/03/28 11:23:43;;;;;;;4.43;1.42;;;;;;;;;;5067455;28;20682;-69
2023/03/28 11:26:13;;;;;;;6.15;1.90;;;;;;;;;;5065672;28;20037;-69
2023/03/28 11:29:07;;;;;;;4.50;1.70;;;;;;;;;;5066580;28;20036;-69
2023/03/28 11:31:35;;;;;;;;;;;;;;;;;;5066367;28;20020;-69
2023/03/28 11:34:34;;;;;;;8.38;1.70;;;;;;;;;;5066197;28;19943;-70
2023/03/28 11:37:06;;;;;;;5.28;1.60;;;;;;;;;;5065089;28;20053;-69
2023/03/28 11:39:43;;;;;;;4.93;1.90;;;;;;;;;;5066234;28;20028;-69
2023/03/28 11:42:22;;;;;;;3.83;1.80;;;;;;;;;;5066691;28;20588;-69
2023/03/28 11:45:11;;;;;;;4.50;1.42;;;;;;;;;;5066404;28;20064;-69
2023/03/28 11:47:46;;;;;;;4.78;1.52;;;;;;;;;;5055971;28;20047;-67
2023/03/28 11:50:35;;;;;;;6.38;1.60;;;;;;;;;;5065977;28;20633;-67
2023/03/28 11:53:05;;;;;;;4.03;1.45;;;;;;;;;;5060374;28;20077;-68
2023/03/28 11:55:33;;;;;;;3.25;1.75;;;;;;;;;;5060627;28;20031;-68
2023/03/28 11:58:20;;;;;;;4.60;1.75;;;;;;;;;;5066290;28;20105;-68
2023/03/28 12:00:58;;;;;;;4.07;1.50;;;;;;;;;;5066663;28;20127;-68
2023/03/28 12:03:30;;;;;;;2.25;1.27;;;;;;;;;;5064949;28;20718;-68
2023/03/28 12:06:09;;;;;;;4.65;1.30;;;;;;;;;;5062711;28;20119;-69
2023/03/28 12:08:42;;;;;;;3.97;1.35;;;;;;;;;;5064505;28;20039;-69
2023/03/28 12:11:19;;;;;;;3.45;1.48;;;;;;;;;;5065456;28;20473;-68
2023/03/28 12:13:49;;;;;;;2.85;1.48;;;;;;;;;;5051491;28;20071;-68
2023/03/28 12:16:20;;;;;;;3.70;1.60;;;;;;;;;;5062284;28;20043;-69
2023/03/28 12:18:56;;;;;;;2.42;1.40;;;;;;;;;;5061347;28;20680;-69
2023/03/28 12:21:33;;;;;;;4.40;2.03;;;;;;;;;;5062052;28;20039;-70
2023/03/28 12:24:07;;;;;;;1.50;1.20;;;;;;;;;;5050203;28;20036;-69
2023/03/28 12:26:59;;;;;;;4.00;1.20;;;;;;;;;;5065481;28;20040;-69
2023/03/28 12:29:36;;;;;;;1.27;0.90;;;;;;;;;;5063909;28;20128;-70
2023/03/28 12:32:37;;;;;;;2.38;1.33;;;;;;;;;;5062011;28;20130;-70
2023/03/28 12:35:27;;;;;;;3.05;1.60;;;;;;;;;;5075134;28;20136;-70
2023/03/28 12:38:00;;;;;;;1.63;0.90;;;;;;;;;;5062993;28;20136;-70
2023/03/28 12:40:59;;;;;;;2.15;1.10;;;;;;;;;;5060189;28;20077;-70
2023/03/28 12:43:50;;;;;;;0.93;0.85;;;;;;;;;;5047861;28;20500;-70
2023/03/28 12:46:21;;;;;;;2.95;1.40;;;;;;;;;;5064423;28;20028;-69
2023/03/28 12:48:52;;;;;;;3.03;1.48;;;;;;;;;;5064806;28;20039;-70
2023/03/28 12:51:24;;;;;;;2.53;1.40;;;;;;;;;;5061084;28;20064;-68
2023/03/28 12:54:15;;;;;;;1.35;1.15;;;;;;;;;;5065358;28;20017;-69
2023/03/28 12:56:45;;;;;;;1.75;1.23;;;;;;;;;;5063714;28;20115;-69
2023/03/28 12:59:38;;;;;;;4.55;1.90;;;;;;;;;;5064148;28;20131;-68
2023/03/28 13:02:42;;;;;;;2.10;1.17;;;;;;;;;;5064838;28;20079;-70
2023/03/28 13:05:08;;;;;;;;;;;;;;;;;;5048368;28;20040;-70
2023/03/28 13:07:50;;;;;;;1.83;1.30;;;;;;;;;;5061463;28;19973;-71
2023/03/28 13:10:32;;;;;;;2.65;1.65;;;;;;;;;;5064530;28;20037;-70
2023/03/28 13:13:21;;;;;;;2.13;1.30;;;;;;;;;;5061112;28;20037;-70
2023/03/28 13:15:58;;;;;;;3.35;1.75;;;;;;;;;;5064112;28;20753;-70
2023/03/28 13:18:26;;;;;;;2.45;1.48;;;;;;;;;;5064464;28;20028;-70
2023/03/28 13:20:53;;;;;;;6.70;1.65;;;;;;;;;;5064912;28;20046;-70
2023/03/28 13:23:42;;;;;;;2.22;1.20;;;;;;;;;;5060629;28;20440;-70
2023/03/28 13:26:07;;;;;;;4.13;1.83;;;;;;;;;;5063349;28;20051;-69
2023/03/28 13:28:40;;;;;;;2.90;1.73;;;;;;;;;;5063715;28;20032;-70
2023/03/28 13:31:08;;;;;;;7.22;1.83;;;;;;;;;;5064325;28;20024;-70
2023/03/28 13:33:38;;;;;;;4.40;1.80;;;;;;;;;;5064038;28;20110;-70
2023/03/28 13:36:04;;;;;;;3.22;1.95;;;;;;;;;;5062457;28;20106;-70
2023/03/28 13:38:29;;;;;;;3.33;1.77;;;;;;;;;;5061153;28;20072;-70
2023/03/28 13:41:07;;;;;;;5.57;2.38;;;;;;;;;;5064371;28;20837;-70
2023/03/28 13:43:47;;;;;;;4.45;1.90;;;;;;;;;;5063996;28;20051;-70
2023/03/28 13:46:27;;;;;;;3.92;2.17;;;;;;;;;;5060890;28;20054;-69
2023/03/28 13:48:52;;;;;;;5.60;2.33;;;;;;;;;;5057981;28;20040;-69
2023/03/28 13:51:22;;;;;;;3.38;1.30;;;;;;;;;;5062710;28;20020;-69
2023/03/28 13:53:48;;;;;;;2.50;1.65;;;;;;;;;;5059745;28;20071;-69
2023/03/28 13:56:22;;;;;;;5.07;1.52;;;;;;;;;;5065754;28;20532;-71
2023/03/28 13:58:50;;;;;;;2.67;1.63;;;;;;;;;;5062464;28;20044;-70
2023/03/28 14:01:24;;;;;;;3.78;1.77;;;;;;;;;;5064425;28;20749;-70
2023/03/28 14:03:50;;;;;;;4.45;2.10;;;;;;;;;;5063494;28;20043;-70
2023/03/28 14:06:22;;;;;;;1.38;1.20;;;;;;;;;;5072605;28;20111;-71
2023/03/28 14:08:50;;;;;;;5.53;1.83;;;;;;;;;;5065334;28;20033;-70
2023/03/28 14:11:22;;;;;;;4.55;2.28;;;;;;;;;;5064485;28;20163;-70
2023/03/28 14:13:48;;;;;;;4.18;2.30;;;;;;;;;;5064690;28;20021;-70
2023/03/28 14:16:15;;;;;;;3.22;1.45;;;;;;;;;;5068588;28;20123;-70
2023/03/28 14:18:45;;;;;;;1.60;1.20;;;;;;;;;;5065618;28;20094;-69
2023/03/28 14:21:11;;;;;;;6.85;1.70;;;;;;;;;;5065812;28;20082;-70
2023/03/28 14:23:38;;;;;;;7.93;2.15;;;;;;;;;;5068311;28;20021;-70
2023/03/28 14:26:06;;;;;;;5.90;1.30;;;;;;;;;;5067445;28;20036;-69
2023/03/28 14:28:32;;;;;;;3.08;1.65;;;;;;;;;;5067506;28;20056;-70
2023/03/28 14:30:58;;;;;;;3.88;1.80;;;;;;;;;;5067846;28;20037;-71
2023/03/28 14:33:24;;;;;;;10.70;3.30;;;;;;;;;;5066090;28;20048;-71
2023/03/28 14:36:02;;;;;;;3.40;1.70;;;;;;;;;;5067109;28;20020;-71
2023/03/28 14:38:31;;;;;;;7.30;3.10;;;;;;;;;;5066016;28;20074;-70
2023/03/28 14:41:05;;;;;;;5.35;2.22;;;;;;;;;;5067675;28;20502;-69
2023/03/28 14:43:31;;;;;;;4.05;1.88;;;;;;;;;;5066104;28;20123;-69
2023/03/28 14:46:01;;;;;;;2.35;1.45;;;;;;;;;;5066709;28;20120;-69
2023/03/28 14:48:27;;;;;;;4.15;2.22;;;;;;;;;;5065746;28;20028;-69
2023/03/28 14:50:54;;;;;;;7.10;1.95;;;;;;;;;;5065646;28;20074;-68
2023/03/28 14:53:26;;;;;;;3.53;1.73;;;;;;;;;;5066815;28;20120;-68
2023/03/28 14:55:53;;;;;;;7.07;2.42;;;;;;;;;;5065682;28;20131;-68
2023/03/28 14:58:23;;;;;;;2.55;1.80;;;;;;;;;;5065222;28;20147;-68
2023/03/28 15:00:56;;;;;;;2.17;1.55;;;;;;;;;;5066257;28;20040;-68
2023/03/28 15:03:30;;;;;;;3.03;1.80;;;;;;;;;;5061945;28;20108;-70